sensor_id;sensor_type;location;lat;lon;timestamp;P1;durP1;ratioP1;P2;durP2;ratioP2
4885;SDS011;2457;51.788;6.136;2023-11-22T00:00:43;7.80;;;4.07;;
4885;SDS011;2457;51.788;6.136;2023-11-22T00:03:10;9.13;;;5.10;;
4885;SDS011;2457;51.788;6.136;2023-11-22T00:05:38;9.67;;;5.47;;
4885;SDS011;2457;51.788;6.136;2023-11-22T00:08:05;8.40;;;4.60;;
4885;SDS011;2457;51.788;6.136;2023-11-22T00:10:33;9.20;;;5.20;;
4885;SDS011;2457;51.788;6.136;2023-11-22T00:13:00;8.27;;;4.83;;
4885;SDS011;2457;51.788;6.136;2023-11-22T00:15:28;8.73;;;5.10;;
4885;SDS011;2457;51.788;6.136;2023-11-22T00:17:55;9.50;;;5.07;;
4885;SDS011;2457;51.788;6.136;2023-11-22T00:20:24;8.70;;;4.60;;
4885;SDS011;2457;51.788;6.136;2023-11-22T00:22:51;8.50;;;4.50;;
4885;SDS011;2457;51.788;6.136;2023-11-22T00:25:18;7.40;;;4.10;;
4885;SDS011;2457;51.788;6.136;2023-11-22T00:27:45;11.50;;;4.93;;
4885;SDS011;2457;51.788;6.136;2023-11-22T00:30:13;7.47;;;4.40;;
4885;SDS011;2457;51.788;6.136;2023-11-22T00:32:41;19.03;;;5.03;;
4885;SDS011;2457;51.788;6.136;2023-11-22T00:35:08;8.63;;;4.50;;
4885;SDS011;2457;51.788;6.136;2023-11-22T00:37:35;10.40;;;4.80;;
4885;SDS011;2457;51.788;6.136;2023-11-22T00:40:03;9.17;;;4.50;;
4885;SDS011;2457;51.788;6.136;2023-11-22T00:42:35;8.50;;;4.87;;
4885;SDS011;2457;51.788;6.136;2023-11-22T00:45:02;7.67;;;4.47;;
4885;SDS011;2457;51.788;6.136;2023-11-22T00:47:32;8.70;;;5.10;;
4885;SDS011;2457;51.788;6.136;2023-11-22T00:49:59;8.97;;;4.20;;
4885;SDS011;2457;51.788;6.136;2023-11-22T00:52:27;37.67;;;13.23;;
4885;SDS011;2457;51.788;6.136;2023-11-22T00:54:55;30.90;;;11.87;;
4885;SDS011;2457;51.788;6.136;2023-11-22T00:57:22;13.60;;;6.30;;
4885;SDS011;2457;51.788;6.136;2023-11-22T00:59:49;10.40;;;5.57;;
4885;SDS011;2457;51.788;6.136;2023-11-22T01:02:17;8.73;;;4.70;;
4885;SDS011;2457;51.788;6.136;2023-11-22T01:04:44;10.00;;;5.47;;
4885;SDS011;2457;51.788;6.136;2023-11-22T01:07:11;9.10;;;4.70;;
4885;SDS011;2457;51.788;6.136;2023-11-22T01:09:39;7.93;;;4.60;;
4885;SDS011;2457;51.788;6.136;2023-11-22T01:12:06;9.60;;;4.70;;
4885;SDS011;2457;51.788;6.136;2023-11-22T01:14:35;9.17;;;4.90;;
4885;SDS011;2457;51.788;6.136;2023-11-22T01:17:02;10.13;;;4.70;;
4885;SDS011;2457;51.788;6.136;2023-11-22T01:19:30;9.40;;;4.80;;
4885;SDS011;2457;51.788;6.136;2023-11-22T01:21:57;8.10;;;4.90;;
4885;SDS011;2457;51.788;6.136;2023-11-22T01:24:25;16.00;;;4.80;;
4885;SDS011;2457;51.788;6.136;2023-11-22T01:26:54;9.37;;;4.20;;
4885;SDS011;2457;51.788;6.136;2023-11-22T01:29:21;7.30;;;4.40;;
4885;SDS011;2457;51.788;6.136;2023-11-22T01:31:49;8.37;;;4.57;;
4885;SDS011;2457;51.788;6.136;2023-11-22T01:34:17;8.57;;;4.53;;
4885;SDS011;2457;51.788;6.136;2023-11-22T01:36:44;8.83;;;4.70;;
4885;SDS011;2457;51.788;6.136;2023-11-22T01:39:11;6.87;;;3.97;;
4885;SDS011;2457;51.788;6.136;2023-11-22T01:41:44;13.80;;;4.87;;
4885;SDS011;2457;51.788;6.136;2023-11-22T01:44:10;7.57;;;4.43;;
4885;SDS011;2457;51.788;6.136;2023-11-22T01:46:37;8.80;;;4.43;;
4885;SDS011;2457;51.788;6.136;2023-11-22T01:49:05;9.07;;;4.70;;
4885;SDS011;2457;51.788;6.136;2023-11-22T01:51:32;9.37;;;4.80;;
4885;SDS011;2457;51.788;6.136;2023-11-22T01:53:59;8.50;;;4.60;;
4885;SDS011;2457;51.788;6.136;2023-11-22T01:56:27;8.40;;;4.73;;
4885;SDS011;2457;51.788;6.136;2023-11-22T01:58:55;7.60;;;4.10;;
4885;SDS011;2457;51.788;6.136;2023-11-22T02:01:23;10.07;;;4.60;;
4885;SDS011;2457;51.788;6.136;2023-11-22T02:03:51;9.20;;;4.97;;
4885;SDS011;2457;51.788;6.136;2023-11-22T02:06:19;9.77;;;4.97;;
4885;SDS011;2457;51.788;6.136;2023-11-22T02:08:49;13.40;;;4.40;;
4885;SDS011;2457;51.788;6.136;2023-11-22T02:11:19;8.03;;;4.00;;
4885;SDS011;2457;51.788;6.136;2023-11-22T02:13:50;11.70;;;4.20;;
4885;SDS011;2457;51.788;6.136;2023-11-22T02:16:18;8.90;;;4.00;;
4885;SDS011;2457;51.788;6.136;2023-11-22T02:18:45;8.23;;;4.47;;
4885;SDS011;2457;51.788;6.136;2023-11-22T02:21:13;7.93;;;4.40;;
4885;SDS011;2457;51.788;6.136;2023-11-22T02:23:41;6.90;;;3.80;;
4885;SDS011;2457;51.788;6.136;2023-11-22T02:26:08;8.60;;;4.20;;
4885;SDS011;2457;51.788;6.136;2023-11-22T02:28:35;8.53;;;4.63;;
4885;SDS011;2457;51.788;6.136;2023-11-22T02:31:04;10.30;;;4.53;;
4885;SDS011;2457;51.788;6.136;2023-11-22T02:33:31;6.97;;;3.90;;
4885;SDS011;2457;51.788;6.136;2023-11-22T02:35:58;8.73;;;4.13;;
4885;SDS011;2457;51.788;6.136;2023-11-22T02:38:28;9.00;;;4.17;;
4885;SDS011;2457;51.788;6.136;2023-11-22T02:40:55;10.17;;;4.90;;
4885;SDS011;2457;51.788;6.136;2023-11-22T02:43:22;8.67;;;4.80;;
4885;SDS011;2457;51.788;6.136;2023-11-22T02:45:50;11.37;;;4.90;;
4885;SDS011;2457;51.788;6.136;2023-11-22T02:48:18;8.33;;;3.90;;
4885;SDS011;2457;51.788;6.136;2023-11-22T02:50:45;10.60;;;5.00;;
4885;SDS011;2457;51.788;6.136;2023-11-22T02:53:12;9.20;;;4.37;;
4885;SDS011;2457;51.788;6.136;2023-11-22T02:55:39;8.37;;;4.17;;
4885;SDS011;2457;51.788;6.136;2023-11-22T02:58:07;8.20;;;4.53;;
4885;SDS011;2457;51.788;6.136;2023-11-22T03:00:34;8.30;;;4.70;;
4885;SDS011;2457;51.788;6.136;2023-11-22T03:03:01;9.80;;;5.20;;
4885;SDS011;2457;51.788;6.136;2023-11-22T03:05:30;8.00;;;4.43;;
4885;SDS011;2457;51.788;6.136;2023-11-22T03:07:57;9.97;;;4.50;;
4885;SDS011;2457;51.788;6.136;2023-11-22T03:10:25;8.20;;;4.10;;
4885;SDS011;2457;51.788;6.136;2023-11-22T03:12:52;17.03;;;5.00;;
4885;SDS011;2457;51.788;6.136;2023-11-22T03:15:20;53.27;;;20.40;;
4885;SDS011;2457;51.788;6.136;2023-11-22T03:17:47;20.40;;;8.50;;
4885;SDS011;2457;51.788;6.136;2023-11-22T03:20:15;12.70;;;6.10;;
4885;SDS011;2457;51.788;6.136;2023-11-22T03:22:42;9.50;;;5.10;;
4885;SDS011;2457;51.788;6.136;2023-11-22T03:25:10;9.00;;;3.70;;
4885;SDS011;2457;51.788;6.136;2023-11-22T03:27:38;7.90;;;4.07;;
4885;SDS011;2457;51.788;6.136;2023-11-22T03:30:06;6.83;;;3.67;;
4885;SDS011;2457;51.788;6.136;2023-11-22T03:32:35;8.20;;;4.30;;
4885;SDS011;2457;51.788;6.136;2023-11-22T03:35:04;9.03;;;4.20;;
4885;SDS011;2457;51.788;6.136;2023-11-22T03:37:31;6.57;;;3.37;;
4885;SDS011;2457;51.788;6.136;2023-11-22T03:39:58;8.87;;;4.77;;
4885;SDS011;2457;51.788;6.136;2023-11-22T03:42:26;8.20;;;4.27;;
4885;SDS011;2457;51.788;6.136;2023-11-22T03:44:53;7.73;;;4.07;;
4885;SDS011;2457;51.788;6.136;2023-11-22T03:47:20;8.57;;;4.43;;
4885;SDS011;2457;51.788;6.136;2023-11-22T03:49:48;7.80;;;3.80;;
4885;SDS011;2457;51.788;6.136;2023-11-22T03:52:15;8.33;;;4.07;;
4885;SDS011;2457;51.788;6.136;2023-11-22T03:54:42;8.33;;;4.10;;
4885;SDS011;2457;51.788;6.136;2023-11-22T03:57:11;8.10;;;4.17;;
4885;SDS011;2457;51.788;6.136;2023-11-22T03:59:40;8.17;;;4.53;;
4885;SDS011;2457;51.788;6.136;2023-11-22T04:02:10;10.10;;;4.20;;
4885;SDS011;2457;51.788;6.136;2023-11-22T04:04:38;8.10;;;4.37;;
4885;SDS011;2457;51.788;6.136;2023-11-22T04:07:06;6.13;;;3.43;;
4885;SDS011;2457;51.788;6.136;2023-11-22T04:09:33;8.30;;;4.53;;
4885;SDS011;2457;51.788;6.136;2023-11-22T04:12:01;13.70;;;4.37;;
4885;SDS011;2457;51.788;6.136;2023-11-22T04:14:30;10.00;;;4.30;;
4885;SDS011;2457;51.788;6.136;2023-11-22T04:16:57;10.83;;;5.27;;
4885;SDS011;2457;51.788;6.136;2023-11-22T04:19:24;9.77;;;4.80;;
4885;SDS011;2457;51.788;6.136;2023-11-22T04:21:52;10.60;;;5.10;;
4885;SDS011;2457;51.788;6.136;2023-11-22T04:24:20;8.90;;;4.67;;
4885;SDS011;2457;51.788;6.136;2023-11-22T04:26:47;8.30;;;4.13;;
4885;SDS011;2457;51.788;6.136;2023-11-22T04:29:15;10.67;;;4.20;;
4885;SDS011;2457;51.788;6.136;2023-11-22T04:31:42;7.90;;;4.00;;
4885;SDS011;2457;51.788;6.136;2023-11-22T04:34:09;9.30;;;4.33;;
4885;SDS011;2457;51.788;6.136;2023-11-22T04:36:37;9.20;;;4.23;;
4885;SDS011;2457;51.788;6.136;2023-11-22T04:39:05;8.97;;;4.60;;
4885;SDS011;2457;51.788;6.136;2023-11-22T04:41:33;9.37;;;4.30;;
4885;SDS011;2457;51.788;6.136;2023-11-22T04:44:01;10.60;;;4.23;;
4885;SDS011;2457;51.788;6.136;2023-11-22T04:46:28;8.73;;;4.43;;
4885;SDS011;2457;51.788;6.136;2023-11-22T04:48:56;10.00;;;4.57;;
4885;SDS011;2457;51.788;6.136;2023-11-22T04:51:23;8.50;;;4.27;;
4885;SDS011;2457;51.788;6.136;2023-11-22T04:53:51;7.60;;;3.90;;
4885;SDS011;2457;51.788;6.136;2023-11-22T04:56:18;13.20;;;4.80;;
4885;SDS011;2457;51.788;6.136;2023-11-22T04:58:45;8.90;;;4.43;;
4885;SDS011;2457;51.788;6.136;2023-11-22T05:01:13;8.37;;;4.50;;
4885;SDS011;2457;51.788;6.136;2023-11-22T05:03:40;8.23;;;3.83;;
4885;SDS011;2457;51.788;6.136;2023-11-22T05:06:07;8.77;;;4.30;;
4885;SDS011;2457;51.788;6.136;2023-11-22T05:08:35;7.97;;;4.00;;
4885;SDS011;2457;51.788;6.136;2023-11-22T05:11:02;10.60;;;4.63;;
4885;SDS011;2457;51.788;6.136;2023-11-22T05:13:30;11.47;;;4.63;;
4885;SDS011;2457;51.788;6.136;2023-11-22T05:15:58;7.87;;;4.40;;
4885;SDS011;2457;51.788;6.136;2023-11-22T05:18:25;12.13;;;5.20;;
4885;SDS011;2457;51.788;6.136;2023-11-22T05:20:52;8.20;;;4.07;;
4885;SDS011;2457;51.788;6.136;2023-11-22T05:23:20;7.90;;;4.00;;
4885;SDS011;2457;51.788;6.136;2023-11-22T05:25:48;8.87;;;3.90;;
4885;SDS011;2457;51.788;6.136;2023-11-22T05:28:15;11.00;;;4.33;;
4885;SDS011;2457;51.788;6.136;2023-11-22T05:30:42;9.07;;;4.10;;
4885;SDS011;2457;51.788;6.136;2023-11-22T05:33:10;8.50;;;4.37;;
4885;SDS011;2457;51.788;6.136;2023-11-22T05:35:37;12.93;;;4.60;;
4885;SDS011;2457;51.788;6.136;2023-11-22T05:38:04;7.07;;;3.90;;
4885;SDS011;2457;51.788;6.136;2023-11-22T05:40:32;9.77;;;5.00;;
4885;SDS011;2457;51.788;6.136;2023-11-22T05:42:59;12.63;;;4.30;;
4885;SDS011;2457;51.788;6.136;2023-11-22T05:45:27;11.10;;;4.53;;
4885;SDS011;2457;51.788;6.136;2023-11-22T05:47:54;11.43;;;4.13;;
4885;SDS011;2457;51.788;6.136;2023-11-22T05:50:21;9.90;;;4.37;;
4885;SDS011;2457;51.788;6.136;2023-11-22T05:52:48;9.10;;;4.07;;
4885;SDS011;2457;51.788;6.136;2023-11-22T05:55:16;10.87;;;5.47;;
4885;SDS011;2457;51.788;6.136;2023-11-22T05:57:44;7.10;;;4.13;;
4885;SDS011;2457;51.788;6.136;2023-11-22T06:00:12;10.90;;;5.30;;
4885;SDS011;2457;51.788;6.136;2023-11-22T06:02:40;8.80;;;4.63;;
4885;SDS011;2457;51.788;6.136;2023-11-22T06:05:08;7.50;;;4.27;;
4885;SDS011;2457;51.788;6.136;2023-11-22T06:07:36;10.60;;;5.30;;
4885;SDS011;2457;51.788;6.136;2023-11-22T06:10:03;7.97;;;4.10;;
4885;SDS011;2457;51.788;6.136;2023-11-22T06:12:30;7.63;;;4.13;;
4885;SDS011;2457;51.788;6.136;2023-11-22T06:15:02;8.83;;;4.30;;
4885;SDS011;2457;51.788;6.136;2023-11-22T06:17:29;9.03;;;4.27;;
4885;SDS011;2457;51.788;6.136;2023-11-22T06:19:57;7.97;;;4.70;;
4885;SDS011;2457;51.788;6.136;2023-11-22T06:22:24;8.87;;;4.77;;
4885;SDS011;2457;51.788;6.136;2023-11-22T06:24:51;9.97;;;5.00;;
4885;SDS011;2457;51.788;6.136;2023-11-22T06:27:19;10.00;;;4.60;;
4885;SDS011;2457;51.788;6.136;2023-11-22T06:29:46;9.73;;;4.53;;
4885;SDS011;2457;51.788;6.136;2023-11-22T06:32:14;7.43;;;4.13;;
4885;SDS011;2457;51.788;6.136;2023-11-22T06:34:41;7.60;;;4.27;;
4885;SDS011;2457;51.788;6.136;2023-11-22T06:37:08;10.37;;;5.23;;
4885;SDS011;2457;51.788;6.136;2023-11-22T06:39:36;8.27;;;4.13;;
4885;SDS011;2457;51.788;6.136;2023-11-22T06:42:03;9.60;;;4.43;;
4885;SDS011;2457;51.788;6.136;2023-11-22T06:44:31;10.77;;;5.50;;
4885;SDS011;2457;51.788;6.136;2023-11-22T06:46:58;10.80;;;5.47;;
4885;SDS011;2457;51.788;6.136;2023-11-22T06:49:25;10.03;;;5.07;;
4885;SDS011;2457;51.788;6.136;2023-11-22T06:51:53;10.47;;;5.43;;
4885;SDS011;2457;51.788;6.136;2023-11-22T06:54:20;9.20;;;5.07;;
4885;SDS011;2457;51.788;6.136;2023-11-22T06:56:47;10.20;;;4.77;;
4885;SDS011;2457;51.788;6.136;2023-11-22T06:59:16;11.33;;;5.33;;
4885;SDS011;2457;51.788;6.136;2023-11-22T07:01:43;10.63;;;5.20;;
4885;SDS011;2457;51.788;6.136;2023-11-22T07:04:12;9.07;;;4.70;;
4885;SDS011;2457;51.788;6.136;2023-11-22T07:06:40;10.73;;;5.80;;
4885;SDS011;2457;51.788;6.136;2023-11-22T07:09:09;11.50;;;4.90;;
4885;SDS011;2457;51.788;6.136;2023-11-22T07:11:36;8.50;;;5.03;;
4885;SDS011;2457;51.788;6.136;2023-11-22T07:14:04;9.07;;;4.03;;
4885;SDS011;2457;51.788;6.136;2023-11-22T07:16:32;7.93;;;4.50;;
4885;SDS011;2457;51.788;6.136;2023-11-22T07:19:00;11.50;;;4.90;;
4885;SDS011;2457;51.788;6.136;2023-11-22T07:21:32;9.10;;;5.10;;
4885;SDS011;2457;51.788;6.136;2023-11-22T07:24:01;9.20;;;4.93;;
4885;SDS011;2457;51.788;6.136;2023-11-22T07:26:29;8.80;;;4.60;;
4885;SDS011;2457;51.788;6.136;2023-11-22T07:28:56;10.00;;;4.80;;
4885;SDS011;2457;51.788;6.136;2023-11-22T07:31:24;10.47;;;4.80;;
4885;SDS011;2457;51.788;6.136;2023-11-22T07:33:51;9.73;;;4.87;;
4885;SDS011;2457;51.788;6.136;2023-11-22T07:36:18;9.80;;;5.53;;
4885;SDS011;2457;51.788;6.136;2023-11-22T07:38:46;11.50;;;5.13;;
4885;SDS011;2457;51.788;6.136;2023-11-22T07:41:14;9.93;;;5.30;;
4885;SDS011;2457;51.788;6.136;2023-11-22T07:43:41;8.60;;;5.07;;
4885;SDS011;2457;51.788;6.136;2023-11-22T07:46:10;10.43;;;4.27;;
4885;SDS011;2457;51.788;6.136;2023-11-22T07:48:44;8.30;;;4.37;;
4885;SDS011;2457;51.788;6.136;2023-11-22T07:51:13;12.67;;;5.67;;
4885;SDS011;2457;51.788;6.136;2023-11-22T07:53:42;9.40;;;5.20;;
4885;SDS011;2457;51.788;6.136;2023-11-22T07:56:09;10.87;;;5.80;;
4885;SDS011;2457;51.788;6.136;2023-11-22T07:58:37;14.40;;;5.73;;
4885;SDS011;2457;51.788;6.136;2023-11-22T08:01:05;12.20;;;5.77;;
4885;SDS011;2457;51.788;6.136;2023-11-22T08:03:34;10.27;;;5.97;;
4885;SDS011;2457;51.788;6.136;2023-11-22T08:06:02;12.80;;;6.07;;
4885;SDS011;2457;51.788;6.136;2023-11-22T08:08:29;10.60;;;5.50;;
4885;SDS011;2457;51.788;6.136;2023-11-22T08:10:56;11.20;;;5.73;;
4885;SDS011;2457;51.788;6.136;2023-11-22T08:13:24;12.63;;;6.20;;
4885;SDS011;2457;51.788;6.136;2023-11-22T08:15:52;10.43;;;5.50;;
4885;SDS011;2457;51.788;6.136;2023-11-22T08:18:19;11.13;;;6.10;;
4885;SDS011;2457;51.788;6.136;2023-11-22T08:20:48;9.60;;;5.20;;
4885;SDS011;2457;51.788;6.136;2023-11-22T08:23:16;10.10;;;6.10;;
4885;SDS011;2457;51.788;6.136;2023-11-22T08:25:44;9.60;;;5.50;;
4885;SDS011;2457;51.788;6.136;2023-11-22T08:28:11;10.37;;;5.87;;
4885;SDS011;2457;51.788;6.136;2023-11-22T08:30:39;16.70;;;6.63;;
4885;SDS011;2457;51.788;6.136;2023-11-22T08:33:07;14.13;;;6.80;;
4885;SDS011;2457;51.788;6.136;2023-11-22T08:35:35;11.13;;;5.63;;
4885;SDS011;2457;51.788;6.136;2023-11-22T08:38:02;11.77;;;5.17;;
4885;SDS011;2457;51.788;6.136;2023-11-22T08:40:31;11.00;;;4.83;;
4885;SDS011;2457;51.788;6.136;2023-11-22T08:42:58;9.47;;;5.83;;
4885;SDS011;2457;51.788;6.136;2023-11-22T08:45:25;10.90;;;6.10;;
4885;SDS011;2457;51.788;6.136;2023-11-22T08:47:54;14.27;;;6.00;;
4885;SDS011;2457;51.788;6.136;2023-11-22T08:50:22;9.83;;;5.57;;
4885;SDS011;2457;51.788;6.136;2023-11-22T08:52:49;11.30;;;5.00;;
4885;SDS011;2457;51.788;6.136;2023-11-22T08:55:19;10.63;;;5.10;;
4885;SDS011;2457;51.788;6.136;2023-11-22T08:57:50;12.40;;;6.27;;
4885;SDS011;2457;51.788;6.136;2023-11-22T09:00:23;12.00;;;5.60;;
4885;SDS011;2457;51.788;6.136;2023-11-22T09:02:52;10.90;;;4.30;;
4885;SDS011;2457;51.788;6.136;2023-11-22T09:05:19;8.77;;;4.30;;
4885;SDS011;2457;51.788;6.136;2023-11-22T09:07:47;9.00;;;4.50;;
4885;SDS011;2457;51.788;6.136;2023-11-22T09:10:15;8.60;;;4.70;;
4885;SDS011;2457;51.788;6.136;2023-11-22T09:12:44;11.43;;;5.53;;
4885;SDS011;2457;51.788;6.136;2023-11-22T09:15:13;12.23;;;5.67;;
4885;SDS011;2457;51.788;6.136;2023-11-22T09:17:43;10.60;;;5.00;;
4885;SDS011;2457;51.788;6.136;2023-11-22T09:20:12;8.70;;;4.73;;
4885;SDS011;2457;51.788;6.136;2023-11-22T09:22:43;8.13;;;4.57;;
4885;SDS011;2457;51.788;6.136;2023-11-22T09:25:14;8.27;;;4.43;;
4885;SDS011;2457;51.788;6.136;2023-11-22T09:27:45;8.40;;;4.23;;
4885;SDS011;2457;51.788;6.136;2023-11-22T09:30:20;10.73;;;4.93;;
4885;SDS011;2457;51.788;6.136;2023-11-22T09:33:01;9.90;;;5.80;;
4885;SDS011;2457;51.788;6.136;2023-11-22T09:35:29;11.87;;;5.80;;
4885;SDS011;2457;51.788;6.136;2023-11-22T09:38:02;10.90;;;5.23;;
4885;SDS011;2457;51.788;6.136;2023-11-22T09:40:29;9.20;;;4.53;;
4885;SDS011;2457;51.788;6.136;2023-11-22T09:42:58;10.50;;;5.20;;
4885;SDS011;2457;51.788;6.136;2023-11-22T09:45:28;14.70;;;4.40;;
4885;SDS011;2457;51.788;6.136;2023-11-22T09:47:59;11.43;;;5.60;;
4885;SDS011;2457;51.788;6.136;2023-11-22T09:50:27;13.50;;;5.50;;
4885;SDS011;2457;51.788;6.136;2023-11-22T09:52:59;9.53;;;5.03;;
4885;SDS011;2457;51.788;6.136;2023-11-22T09:55:27;12.47;;;6.37;;
4885;SDS011;2457;51.788;6.136;2023-11-22T09:57:58;9.90;;;5.30;;
4885;SDS011;2457;51.788;6.136;2023-11-22T10:00:28;9.23;;;4.90;;
4885;SDS011;2457;51.788;6.136;2023-11-22T10:02:57;11.87;;;5.80;;
4885;SDS011;2457;51.788;6.136;2023-11-22T10:05:24;10.13;;;5.43;;
4885;SDS011;2457;51.788;6.136;2023-11-22T10:07:53;12.30;;;6.70;;
4885;SDS011;2457;51.788;6.136;2023-11-22T10:10:22;12.90;;;6.60;;
4885;SDS011;2457;51.788;6.136;2023-11-22T10:12:51;13.73;;;6.90;;
4885;SDS011;2457;51.788;6.136;2023-11-22T10:15:21;16.60;;;7.13;;
4885;SDS011;2457;51.788;6.136;2023-11-22T10:17:56;11.70;;;7.47;;
4885;SDS011;2457;51.788;6.136;2023-11-22T10:20:24;16.60;;;7.97;;
4885;SDS011;2457;51.788;6.136;2023-11-22T10:22:52;9.37;;;4.47;;
4885;SDS011;2457;51.788;6.136;2023-11-22T10:25:20;13.83;;;7.17;;
4885;SDS011;2457;51.788;6.136;2023-11-22T10:27:49;11.87;;;6.53;;
4885;SDS011;2457;51.788;6.136;2023-11-22T10:30:18;13.30;;;6.80;;
4885;SDS011;2457;51.788;6.136;2023-11-22T10:32:45;11.73;;;6.57;;
4885;SDS011;2457;51.788;6.136;2023-11-22T10:35:13;12.83;;;6.33;;
4885;SDS011;2457;51.788;6.136;2023-11-22T10:37:43;13.30;;;6.40;;
4885;SDS011;2457;51.788;6.136;2023-11-22T10:40:11;16.27;;;7.23;;
4885;SDS011;2457;51.788;6.136;2023-11-22T10:42:42;15.40;;;8.00;;
4885;SDS011;2457;51.788;6.136;2023-11-22T10:45:10;13.17;;;6.30;;
4885;SDS011;2457;51.788;6.136;2023-11-22T10:47:37;16.03;;;7.40;;
4885;SDS011;2457;51.788;6.136;2023-11-22T10:50:05;16.17;;;8.43;;
4885;SDS011;2457;51.788;6.136;2023-11-22T10:52:35;15.37;;;7.90;;
4885;SDS011;2457;51.788;6.136;2023-11-22T10:55:04;15.50;;;7.00;;
4885;SDS011;2457;51.788;6.136;2023-11-22T10:57:39;16.83;;;9.70;;
4885;SDS011;2457;51.788;6.136;2023-11-22T11:00:03;19.03;;;9.17;;
4885;SDS011;2457;51.788;6.136;2023-11-22T11:02:34;20.23;;;10.20;;
4885;SDS011;2457;51.788;6.136;2023-11-22T11:05:05;22.33;;;11.20;;
4885;SDS011;2457;51.788;6.136;2023-11-22T11:07:34;17.67;;;8.63;;
4885;SDS011;2457;51.788;6.136;2023-11-22T11:10:03;17.50;;;8.97;;
4885;SDS011;2457;51.788;6.136;2023-11-22T11:12:32;19.37;;;9.20;;
4885;SDS011;2457;51.788;6.136;2023-11-22T11:15:00;20.77;;;10.43;;
4885;SDS011;2457;51.788;6.136;2023-11-22T11:17:27;19.17;;;9.50;;
4885;SDS011;2457;51.788;6.136;2023-11-22T11:19:54;17.30;;;9.17;;
4885;SDS011;2457;51.788;6.136;2023-11-22T11:22:22;19.43;;;9.70;;
4885;SDS011;2457;51.788;6.136;2023-11-22T11:24:49;18.03;;;9.00;;
4885;SDS011;2457;51.788;6.136;2023-11-22T11:27:18;20.83;;;10.23;;
4885;SDS011;2457;51.788;6.136;2023-11-22T11:29:45;20.37;;;9.33;;
4885;SDS011;2457;51.788;6.136;2023-11-22T11:32:19;23.03;;;9.30;;
4885;SDS011;2457;51.788;6.136;2023-11-22T11:34:47;15.90;;;7.97;;
4885;SDS011;2457;51.788;6.136;2023-11-22T11:37:19;18.50;;;7.20;;
4885;SDS011;2457;51.788;6.136;2023-11-22T11:39:47;15.47;;;6.60;;
4885;SDS011;2457;51.788;6.136;2023-11-22T11:42:19;13.73;;;7.07;;
4885;SDS011;2457;51.788;6.136;2023-11-22T11:47:28;10.30;;;5.00;;
4885;SDS011;2457;51.788;6.136;2023-11-22T11:49:55;11.83;;;6.50;;
4885;SDS011;2457;51.788;6.136;2023-11-22T11:52:24;14.70;;;6.30;;
4885;SDS011;2457;51.788;6.136;2023-11-22T11:54:51;15.10;;;6.47;;
4885;SDS011;2457;51.788;6.136;2023-11-22T11:57:19;12.47;;;6.33;;
4885;SDS011;2457;51.788;6.136;2023-11-22T11:59:47;9.30;;;5.50;;
4885;SDS011;2457;51.788;6.136;2023-11-22T12:02:15;11.03;;;5.73;;
4885;SDS011;2457;51.788;6.136;2023-11-22T12:04:43;12.73;;;5.77;;
4885;SDS011;2457;51.788;6.136;2023-11-22T12:07:11;11.07;;;6.00;;
4885;SDS011;2457;51.788;6.136;2023-11-22T12:09:39;10.27;;;5.17;;
4885;SDS011;2457;51.788;6.136;2023-11-22T12:12:07;12.47;;;6.20;;
4885;SDS011;2457;51.788;6.136;2023-11-22T12:14:34;13.97;;;6.27;;
4885;SDS011;2457;51.788;6.136;2023-11-22T12:17:03;12.50;;;5.67;;
4885;SDS011;2457;51.788;6.136;2023-11-22T12:19:32;16.40;;;6.90;;
4885;SDS011;2457;51.788;6.136;2023-11-22T12:22:00;14.60;;;7.17;;
4885;SDS011;2457;51.788;6.136;2023-11-22T12:24:28;13.07;;;7.60;;
4885;SDS011;2457;51.788;6.136;2023-11-22T12:26:55;13.60;;;5.63;;
4885;SDS011;2457;51.788;6.136;2023-11-22T12:29:23;16.63;;;7.93;;
4885;SDS011;2457;51.788;6.136;2023-11-22T12:31:51;15.90;;;6.97;;
4885;SDS011;2457;51.788;6.136;2023-11-22T12:34:21;15.77;;;7.97;;
4885;SDS011;2457;51.788;6.136;2023-11-22T12:36:51;15.50;;;7.73;;
4885;SDS011;2457;51.788;6.136;2023-11-22T12:39:19;13.83;;;6.63;;
4885;SDS011;2457;51.788;6.136;2023-11-22T12:41:47;13.00;;;7.50;;
4885;SDS011;2457;51.788;6.136;2023-11-22T12:44:17;13.70;;;6.90;;
4885;SDS011;2457;51.788;6.136;2023-11-22T12:46:50;15.30;;;7.07;;
4885;SDS011;2457;51.788;6.136;2023-11-22T12:49:15;11.27;;;6.47;;
4885;SDS011;2457;51.788;6.136;2023-11-22T12:51:45;10.47;;;6.27;;
4885;SDS011;2457;51.788;6.136;2023-11-22T12:54:13;13.70;;;7.20;;
4885;SDS011;2457;51.788;6.136;2023-11-22T12:56:41;11.37;;;6.00;;
4885;SDS011;2457;51.788;6.136;2023-11-22T12:59:08;13.07;;;6.23;;
4885;SDS011;2457;51.788;6.136;2023-11-22T13:01:36;11.90;;;5.70;;
4885;SDS011;2457;51.788;6.136;2023-11-22T13:04:04;12.93;;;6.50;;
4885;SDS011;2457;51.788;6.136;2023-11-22T13:06:31;11.90;;;5.03;;
4885;SDS011;2457;51.788;6.136;2023-11-22T13:08:59;12.97;;;6.80;;
4885;SDS011;2457;51.788;6.136;2023-11-22T13:11:26;10.03;;;5.40;;
4885;SDS011;2457;51.788;6.136;2023-11-22T13:13:54;8.87;;;4.60;;
4885;SDS011;2457;51.788;6.136;2023-11-22T13:16:22;12.23;;;6.40;;
4885;SDS011;2457;51.788;6.136;2023-11-22T13:18:49;13.30;;;6.97;;
4885;SDS011;2457;51.788;6.136;2023-11-22T13:21:16;12.27;;;6.93;;
4885;SDS011;2457;51.788;6.136;2023-11-22T13:23:46;14.37;;;6.70;;
4885;SDS011;2457;51.788;6.136;2023-11-22T13:26:12;11.20;;;6.10;;
4885;SDS011;2457;51.788;6.136;2023-11-22T13:28:40;15.23;;;6.93;;
4885;SDS011;2457;51.788;6.136;2023-11-22T13:31:08;13.40;;;7.10;;
4885;SDS011;2457;51.788;6.136;2023-11-22T13:33:36;17.90;;;8.67;;
4885;SDS011;2457;51.788;6.136;2023-11-22T13:36:04;15.67;;;7.97;;
4885;SDS011;2457;51.788;6.136;2023-11-22T13:38:33;16.00;;;7.70;;
4885;SDS011;2457;51.788;6.136;2023-11-22T13:41:01;14.93;;;7.30;;
4885;SDS011;2457;51.788;6.136;2023-11-22T13:43:28;15.23;;;6.80;;
4885;SDS011;2457;51.788;6.136;2023-11-22T13:45:55;15.40;;;7.20;;
4885;SDS011;2457;51.788;6.136;2023-11-22T13:48:23;15.20;;;6.57;;
4885;SDS011;2457;51.788;6.136;2023-11-22T13:50:50;11.70;;;6.50;;
4885;SDS011;2457;51.788;6.136;2023-11-22T13:53:18;14.33;;;5.87;;
4885;SDS011;2457;51.788;6.136;2023-11-22T13:55:47;15.77;;;7.53;;
4885;SDS011;2457;51.788;6.136;2023-11-22T13:58:16;16.30;;;8.20;;
4885;SDS011;2457;51.788;6.136;2023-11-22T14:00:44;18.17;;;6.60;;
4885;SDS011;2457;51.788;6.136;2023-11-22T14:03:13;14.87;;;6.80;;
4885;SDS011;2457;51.788;6.136;2023-11-22T14:05:40;17.37;;;7.63;;
4885;SDS011;2457;51.788;6.136;2023-11-22T14:08:07;17.13;;;7.40;;
4885;SDS011;2457;51.788;6.136;2023-11-22T14:10:35;14.53;;;6.90;;
4885;SDS011;2457;51.788;6.136;2023-11-22T14:13:02;14.87;;;7.30;;
4885;SDS011;2457;51.788;6.136;2023-11-22T14:15:31;17.27;;;7.77;;
4885;SDS011;2457;51.788;6.136;2023-11-22T14:17:58;12.10;;;5.97;;
4885;SDS011;2457;51.788;6.136;2023-11-22T14:20:26;16.53;;;7.57;;
4885;SDS011;2457;51.788;6.136;2023-11-22T14:22:55;18.50;;;8.47;;
4885;SDS011;2457;51.788;6.136;2023-11-22T14:25:23;14.33;;;7.60;;
4885;SDS011;2457;51.788;6.136;2023-11-22T14:27:50;12.23;;;6.40;;
4885;SDS011;2457;51.788;6.136;2023-11-22T14:30:19;29.13;;;8.47;;
4885;SDS011;2457;51.788;6.136;2023-11-22T14:32:47;15.43;;;7.60;;
4885;SDS011;2457;51.788;6.136;2023-11-22T14:35:16;15.20;;;7.97;;
4885;SDS011;2457;51.788;6.136;2023-11-22T14:37:43;15.87;;;8.47;;
4885;SDS011;2457;51.788;6.136;2023-11-22T14:40:11;13.70;;;6.93;;
4885;SDS011;2457;51.788;6.136;2023-11-22T14:42:41;22.87;;;8.93;;
4885;SDS011;2457;51.788;6.136;2023-11-22T14:45:08;15.70;;;7.60;;
4885;SDS011;2457;51.788;6.136;2023-11-22T14:47:38;16.43;;;7.57;;
4885;SDS011;2457;51.788;6.136;2023-11-22T14:50:07;19.20;;;8.60;;
4885;SDS011;2457;51.788;6.136;2023-11-22T14:52:36;17.53;;;8.60;;
4885;SDS011;2457;51.788;6.136;2023-11-22T14:55:03;17.90;;;8.80;;
4885;SDS011;2457;51.788;6.136;2023-11-22T14:57:31;24.00;;;10.60;;
4885;SDS011;2457;51.788;6.136;2023-11-22T14:59:58;19.97;;;10.17;;
4885;SDS011;2457;51.788;6.136;2023-11-22T15:02:26;16.73;;;8.30;;
4885;SDS011;2457;51.788;6.136;2023-11-22T15:04:53;24.13;;;10.77;;
4885;SDS011;2457;51.788;6.136;2023-11-22T15:07:21;22.43;;;10.27;;
4885;SDS011;2457;51.788;6.136;2023-11-22T15:09:48;23.03;;;9.77;;
4885;SDS011;2457;51.788;6.136;2023-11-22T15:12:15;17.97;;;9.87;;
4885;SDS011;2457;51.788;6.136;2023-11-22T15:14:43;23.20;;;9.63;;